HISTORICAL SENSOR DATA

Sensor Data Report

DB LIVE
CURRENT TIME--:--:--
DEVICE NETWORK Gateway Status
13 ESP · realtime ~1s · history 60s
Weather WS-MOD-01
ONLINE
Actuator ACT-MOD-01
OFFLINE
Mainboard L3 MB-L3-01
ONLINE
Mainboard L5 MB-L5-01
ONLINE
Remote AC AC-REMOTE-01
ONLINE
PZEM L3-01 PWR-L3-01
OFFLINE
PZEM L3-02 PWR-L3-02
OFFLINE
PZEM L3-03 PWR-L3-03
OFFLINE
PZEM L3-04 PWR-L3-04
OFFLINE
PZEM L5-01 PWR-L5-01
ONLINE
PZEM L5-02 PWR-L5-02
ONLINE
PZEM L5-03 PWR-L5-03
OFFLINE
PZEM L5-04 PWR-L5-04
OFFLINE
REPORT FILTER

Periode & Sensor

DATABASE HISTORY
RESET
QUICK RANGE Hari ini 7 hari 30 hari
PERIODE08 Aug 2026sampai 06 Sep 2026
TOTAL DATA55,630sensor readings
MINIMUM-0.50sesuai filter
AVERAGE95.65sesuai filter
MAXIMUM32,564.20sesuai filter
REPORT RESULT

Data Sensor

08/08/2026 — 06/09/2026 EXPORT CSV
NOTANGGALWAKTUDEVICECHANNELSENSORVALUEUNIT
2801 06/09/2026 20:15:00 PWR-L5-01Power Meter L5 PZEM 01 PZEM-L5-01-POWER PZEM L5-01 Active Power 10.40 W
2802 06/09/2026 20:15:00 MB-L5-01Mainboard Lantai 5 L5-LUX-01 Illuminance / LUX 1 320.00 lux
2803 06/09/2026 20:15:00 AC-REMOTE-01Remote AC AC-MODE AC Operating Mode 1.00 code
2804 06/09/2026 20:15:00 MB-L5-01Mainboard Lantai 5 L5-RAD-01 Radiation 1 1.00 W/m²
2805 06/09/2026 20:15:00 PWR-L5-01Power Meter L5 PZEM 01 PZEM-L5-01-PF PZEM L5-01 Power Factor 0.40
2806 06/09/2026 20:15:00 AC-REMOTE-01Remote AC AC-SETPOINT AC Set Temperature 23.00 °C
2807 06/09/2026 20:15:00 MB-L5-01Mainboard Lantai 5 L5-AI-05 Analog Input 5 3.05 V
2808 06/09/2026 20:15:00 MB-L3-01Mainboard Lantai 3 L3-RAD-01 Radiation 1 1.00 W/m²
2809 06/09/2026 20:15:00 AC-REMOTE-01Remote AC AC-POWER AC Power State 1.00 state
2810 06/09/2026 20:15:00 MB-L3-01Mainboard Lantai 3 L3-AI-05 Analog Input 5 3.12 V
2811 06/09/2026 20:15:00 MB-L5-01Mainboard Lantai 5 L5-LUX-06 Illuminance / LUX 6 594.40 lux
2812 06/09/2026 20:15:00 MB-L3-01Mainboard Lantai 3 L3-SHT-03-T SHT20 3 Temperature 29.30 °C
2813 06/09/2026 20:15:00 MB-L5-01Mainboard Lantai 5 L5-RAD-02 Radiation 2 1.00 W/m²
2814 06/09/2026 20:15:00 WS-MOD-01Weather Station Module WS-DIR Arah Angin 148.30 °
2815 06/09/2026 20:15:00 MB-L3-01Mainboard Lantai 3 L3-LUX-02 Illuminance / LUX 2 615.80 lux
2816 06/09/2026 20:15:00 MB-L5-01Mainboard Lantai 5 L5-ST-02 Surface Temperature 2 25.10 °C
2817 06/09/2026 20:15:00 MB-L5-01Mainboard Lantai 5 L5-BGT-02 Black Globe Temperature 2 27.60 °C
2818 06/09/2026 20:15:00 MB-L3-01Mainboard Lantai 3 L3-LUX-03 Illuminance / LUX 3 734.10 lux
2819 06/09/2026 20:15:00 MB-L3-01Mainboard Lantai 3 L3-LUX-06 Illuminance / LUX 6 541.00 lux
2820 06/09/2026 20:15:00 MB-L5-01Mainboard Lantai 5 L5-SHT-02-RH SHT20 2 Humidity 46.60 %RH
2821 06/09/2026 20:15:00 MB-L5-01Mainboard Lantai 5 L5-HFT-02 Heat Flow Temperature 2 24.90 °C
2822 06/09/2026 20:15:00 WS-MOD-01Weather Station Module WS-PRES Tekanan Udara 912.00 hPa
2823 06/09/2026 20:15:00 MB-L3-01Mainboard Lantai 3 L3-LUX-05 Illuminance / LUX 5 389.90 lux
2824 06/09/2026 20:15:00 MB-L3-01Mainboard Lantai 3 L3-AI-02 Analog Input 2 3.12 V
2825 06/09/2026 20:15:00 PWR-L5-01Power Meter L5 PZEM 01 PZEM-L5-01-VOLT PZEM L5-01 Voltage 225.40 V
2826 06/09/2026 20:15:00 MB-L5-01Mainboard Lantai 5 L5-AI-02 Analog Input 2 3.05 V
2827 06/09/2026 20:15:00 PWR-L5-01Power Meter L5 PZEM 01 PZEM-L5-01-ENERGY PZEM L5-01 Energy 0.02 kWh
2828 06/09/2026 20:15:00 MB-L5-01Mainboard Lantai 5 L5-SHT-03-T SHT20 3 Temperature 29.50 °C
2829 06/09/2026 20:15:00 WS-MOD-01Weather Station Module WS-RH Kelembapan Udara 70.70 %RH
2830 06/09/2026 20:15:00 MB-L3-01Mainboard Lantai 3 L3-SHT-02-RH SHT20 2 Humidity 44.10 %RH
2831 06/09/2026 20:15:00 PWR-L5-02Power Meter L5 PZEM 02 PZEM-L5-02-PF PZEM L5-02 Power Factor 0.97
2832 06/09/2026 20:15:00 MB-L5-01Mainboard Lantai 5 L5-AI-04 Analog Input 4 3.05 V
2833 06/09/2026 20:15:00 MB-L3-01Mainboard Lantai 3 L3-SHT-01-RH SHT20 1 Humidity 44.70 %RH
2834 06/09/2026 20:15:00 MB-L5-01Mainboard Lantai 5 L5-LUX-04 Illuminance / LUX 4 432.10 lux
2835 06/09/2026 20:15:00 WS-MOD-01Weather Station Module WS-TEMP Suhu Udara 21.30 °C
2836 06/09/2026 20:15:00 MB-L3-01Mainboard Lantai 3 L3-AI-04 Analog Input 4 3.12 V
2837 06/09/2026 20:15:00 MB-L5-01Mainboard Lantai 5 L5-SHT-03-RH SHT20 3 Humidity 46.90 %RH
2838 06/09/2026 20:15:00 PWR-L5-02Power Meter L5 PZEM 02 PZEM-L5-02-FREQ PZEM L5-02 Frequency 49.90 Hz
2839 06/09/2026 20:15:00 MB-L3-01Mainboard Lantai 3 L3-SHT-01-T SHT20 1 Temperature 29.00 °C
2840 06/09/2026 20:15:00 WS-MOD-01Weather Station Module WS-WIND Kecepatan Angin 8.81 m/s
2841 06/09/2026 20:15:00 MB-L5-01Mainboard Lantai 5 L5-AI-06 Analog Input 6 3.05 V
2842 06/09/2026 20:15:00 MB-L5-01Mainboard Lantai 5 L5-BGT-01 Black Globe Temperature 1 27.70 °C
2843 06/09/2026 20:15:00 MB-L5-01Mainboard Lantai 5 L5-SHT-01-T SHT20 1 Temperature 29.30 °C
2844 06/09/2026 20:15:00 PWR-L5-01Power Meter L5 PZEM 01 PZEM-L5-01-CURR PZEM L5-01 Current 0.12 A
2845 06/09/2026 20:15:00 MB-L5-01Mainboard Lantai 5 L5-SHT-01-RH SHT20 1 Humidity 47.00 %RH
2846 06/09/2026 20:15:00 PWR-L5-02Power Meter L5 PZEM 02 PZEM-L5-02-ENERGY PZEM L5-02 Energy 0.03 kWh
2847 06/09/2026 20:15:00 MB-L3-01Mainboard Lantai 3 L3-AI-06 Analog Input 6 3.12 V
2848 06/09/2026 20:15:00 PWR-L5-01Power Meter L5 PZEM 01 PZEM-L5-01-FREQ PZEM L5-01 Frequency 49.90 Hz
2849 06/09/2026 20:15:00 MB-L3-01Mainboard Lantai 3 L3-LUX-01 Illuminance / LUX 1 503.30 lux
2850 06/09/2026 20:15:00 MB-L5-01Mainboard Lantai 5 L5-ST-01 Surface Temperature 1 25.60 °C
2851 06/09/2026 20:15:00 MB-L3-01Mainboard Lantai 3 L3-AI-01 Analog Input 1 3.12 V
2852 06/09/2026 20:15:00 MB-L5-01Mainboard Lantai 5 L5-HFT-01 Heat Flow Temperature 1 25.30 °C
2853 06/09/2026 20:15:00 MB-L5-01Mainboard Lantai 5 L5-BGT-03 Black Globe Temperature 3 27.40 °C
2854 06/09/2026 20:15:00 PWR-L5-02Power Meter L5 PZEM 02 PZEM-L5-02-POWER PZEM L5-02 Active Power 164.80 W
2855 06/09/2026 20:15:00 MB-L3-01Mainboard Lantai 3 L3-RAD-02 Radiation 2 1.00 W/m²
2856 06/09/2026 20:15:00 MB-L5-01Mainboard Lantai 5 L5-AI-01 Analog Input 1 3.05 V
2857 06/09/2026 20:15:00 MB-L5-01Mainboard Lantai 5 L5-LUX-03 Illuminance / LUX 3 620.10 lux
2858 06/09/2026 20:15:00 MB-L3-01Mainboard Lantai 3 L3-SHT-03-RH SHT20 3 Humidity 44.20 %RH
2859 06/09/2026 20:15:00 PWR-L5-02Power Meter L5 PZEM 02 PZEM-L5-02-CURR PZEM L5-02 Current 0.75 A
2860 06/09/2026 20:15:00 MB-L3-01Mainboard Lantai 3 L3-LUX-04 Illuminance / LUX 4 585.50 lux
2861 06/09/2026 20:15:00 MB-L5-01Mainboard Lantai 5 L5-LUX-02 Illuminance / LUX 2 316.80 lux
2862 06/09/2026 20:15:00 MB-L3-01Mainboard Lantai 3 L3-AI-03 Analog Input 3 3.12 V
2863 06/09/2026 20:15:00 MB-L5-01Mainboard Lantai 5 L5-AI-03 Analog Input 3 3.05 V
2864 06/09/2026 20:15:00 MB-L5-01Mainboard Lantai 5 L5-SHT-02-T SHT20 2 Temperature 29.60 °C
2865 06/09/2026 20:15:00 PWR-L5-02Power Meter L5 PZEM 02 PZEM-L5-02-VOLT PZEM L5-02 Voltage 225.40 V
2866 06/09/2026 20:15:00 MB-L3-01Mainboard Lantai 3 L3-SHT-02-T SHT20 2 Temperature 29.30 °C
2867 06/09/2026 20:15:00 AC-REMOTE-01Remote AC AC-FAN AC Fan Speed 0.00 code
2868 06/09/2026 20:14:00 MB-L3-01Mainboard Lantai 3 L3-LUX-06 Illuminance / LUX 6 541.20 lux
2869 06/09/2026 20:14:00 MB-L5-01Mainboard Lantai 5 L5-SHT-02-RH SHT20 2 Humidity 46.70 %RH
2870 06/09/2026 20:14:00 MB-L5-01Mainboard Lantai 5 L5-HFT-02 Heat Flow Temperature 2 24.80 °C
2871 06/09/2026 20:14:00 WS-MOD-01Weather Station Module WS-PRES Tekanan Udara 912.00 hPa
2872 06/09/2026 20:14:00 MB-L3-01Mainboard Lantai 3 L3-LUX-05 Illuminance / LUX 5 390.10 lux
2873 06/09/2026 20:14:00 MB-L3-01Mainboard Lantai 3 L3-AI-02 Analog Input 2 3.12 V
2874 06/09/2026 20:14:00 PWR-L5-01Power Meter L5 PZEM 01 PZEM-L5-01-VOLT PZEM L5-01 Voltage 225.70 V
2875 06/09/2026 20:14:00 MB-L5-01Mainboard Lantai 5 L5-AI-02 Analog Input 2 3.05 V
2876 06/09/2026 20:14:00 PWR-L5-01Power Meter L5 PZEM 01 PZEM-L5-01-ENERGY PZEM L5-01 Energy 0.02 kWh
2877 06/09/2026 20:14:00 MB-L5-01Mainboard Lantai 5 L5-SHT-03-T SHT20 3 Temperature 29.50 °C
2878 06/09/2026 20:14:00 MB-L5-01Mainboard Lantai 5 L5-LUX-05 Illuminance / LUX 5 450.90 lux
2879 06/09/2026 20:14:00 WS-MOD-01Weather Station Module WS-RH Kelembapan Udara 70.60 %RH
2880 06/09/2026 20:14:00 MB-L3-01Mainboard Lantai 3 L3-SHT-02-RH SHT20 2 Humidity 44.10 %RH
2881 06/09/2026 20:14:00 PWR-L5-02Power Meter L5 PZEM 02 PZEM-L5-02-PF PZEM L5-02 Power Factor 0.97
2882 06/09/2026 20:14:00 MB-L5-01Mainboard Lantai 5 L5-AI-04 Analog Input 4 3.05 V
2883 06/09/2026 20:14:00 MB-L3-01Mainboard Lantai 3 L3-SHT-01-RH SHT20 1 Humidity 44.70 %RH
2884 06/09/2026 20:14:00 MB-L5-01Mainboard Lantai 5 L5-LUX-04 Illuminance / LUX 4 432.60 lux
2885 06/09/2026 20:14:00 WS-MOD-01Weather Station Module WS-TEMP Suhu Udara 21.40 °C
2886 06/09/2026 20:14:00 MB-L3-01Mainboard Lantai 3 L3-AI-04 Analog Input 4 3.12 V
2887 06/09/2026 20:14:00 MB-L5-01Mainboard Lantai 5 L5-SHT-03-RH SHT20 3 Humidity 46.90 %RH
2888 06/09/2026 20:14:00 PWR-L5-02Power Meter L5 PZEM 02 PZEM-L5-02-FREQ PZEM L5-02 Frequency 50.00 Hz
2889 06/09/2026 20:14:00 MB-L3-01Mainboard Lantai 3 L3-SHT-01-T SHT20 1 Temperature 29.00 °C
2890 06/09/2026 20:14:00 WS-MOD-01Weather Station Module WS-WIND Kecepatan Angin 2.61 m/s
2891 06/09/2026 20:14:00 MB-L5-01Mainboard Lantai 5 L5-AI-06 Analog Input 6 3.05 V
2892 06/09/2026 20:14:00 MB-L5-01Mainboard Lantai 5 L5-BGT-01 Black Globe Temperature 1 27.60 °C
2893 06/09/2026 20:14:00 MB-L5-01Mainboard Lantai 5 L5-SHT-01-T SHT20 1 Temperature 29.40 °C
2894 06/09/2026 20:14:00 PWR-L5-01Power Meter L5 PZEM 01 PZEM-L5-01-CURR PZEM L5-01 Current 0.12 A
2895 06/09/2026 20:14:00 MB-L5-01Mainboard Lantai 5 L5-SHT-01-RH SHT20 1 Humidity 47.20 %RH
2896 06/09/2026 20:14:00 PWR-L5-02Power Meter L5 PZEM 02 PZEM-L5-02-ENERGY PZEM L5-02 Energy 0.02 kWh
2897 06/09/2026 20:14:00 MB-L3-01Mainboard Lantai 3 L3-AI-06 Analog Input 6 3.12 V
2898 06/09/2026 20:14:00 PWR-L5-01Power Meter L5 PZEM 01 PZEM-L5-01-FREQ PZEM L5-01 Frequency 50.00 Hz
2899 06/09/2026 20:14:00 MB-L3-01Mainboard Lantai 3 L3-LUX-01 Illuminance / LUX 1 503.50 lux
2900 06/09/2026 20:14:00 MB-L5-01Mainboard Lantai 5 L5-ST-01 Surface Temperature 1 25.60 °C
Menampilkan maksimal 100 data per halaman